createdAt,value
2019-03-20T00:00:02.359Z,7.22
2019-03-20T00:01:02.292Z,7.25
2019-03-20T00:02:02.313Z,7.23
2019-03-20T00:03:02.308Z,7.25
2019-03-20T00:04:02.308Z,7.15
2019-03-20T00:05:02.329Z,7.21
2019-03-20T00:06:02.293Z,7.13
2019-03-20T00:07:02.300Z,7.15
2019-03-20T00:08:02.314Z,7.19
2019-03-20T00:09:02.373Z,7.13
2019-03-20T00:10:02.342Z,7.15
2019-03-20T00:11:02.331Z,7.10
2019-03-20T00:12:02.341Z,7.15
2019-03-20T00:13:02.347Z,7.22
2019-03-20T00:14:02.332Z,7.14
2019-03-20T00:15:02.395Z,7.13
2019-03-20T00:16:02.372Z,7.08
2019-03-20T00:17:04.037Z,7.18
2019-03-20T00:18:02.334Z,7.14
2019-03-20T00:19:02.349Z,7.04
2019-03-20T00:20:02.398Z,7.04
2019-03-20T00:21:02.374Z,7.08
2019-03-20T00:22:02.355Z,7.11
2019-03-20T00:23:02.367Z,7.05
2019-03-20T00:24:02.358Z,7.04
2019-03-20T00:25:02.360Z,7.11
2019-03-20T00:26:02.437Z,7.21
2019-03-20T00:27:02.365Z,7.14
2019-03-20T00:28:02.380Z,7.01
2019-03-20T00:29:02.386Z,7.07
2019-03-20T00:30:02.397Z,7.10
2019-03-20T00:31:02.453Z,7.11
2019-03-20T00:32:02.370Z,7.07
2019-03-20T00:33:02.383Z,7.10
2019-03-20T00:34:02.382Z,6.97
2019-03-20T00:35:02.414Z,7.10
2019-03-20T00:36:02.396Z,7.00
2019-03-20T00:37:02.458Z,6.97
2019-03-20T00:38:02.403Z,7.03
2019-03-20T00:39:02.399Z,7.00
2019-03-20T00:40:02.407Z,7.03
2019-03-20T00:41:02.417Z,7.03
2019-03-20T00:42:02.461Z,7.00
2019-03-20T00:43:02.409Z,6.97
2019-03-20T00:44:02.440Z,7.01
2019-03-20T00:45:02.437Z,7.01
2019-03-20T00:46:02.427Z,6.97
2019-03-20T00:47:02.433Z,7.04
2019-03-20T00:48:02.475Z,7.01
2019-03-20T00:49:02.437Z,7.03
2019-03-20T00:50:02.452Z,7.00
2019-03-20T00:51:02.450Z,7.03
2019-03-20T00:52:02.459Z,6.93
2019-03-20T00:53:02.471Z,6.96
2019-03-20T00:54:02.515Z,7.00
2019-03-20T00:55:02.463Z,6.95
2019-03-20T00:56:02.470Z,7.04
2019-03-20T00:57:02.476Z,6.92
2019-03-20T00:58:02.501Z,6.97
2019-03-20T00:59:02.474Z,7.05
2019-03-20T01:00:02.492Z,7.04
2019-03-20T01:01:02.469Z,7.00
2019-03-20T01:02:02.510Z,6.93
2019-03-20T01:03:02.522Z,7.05
2019-03-20T01:04:02.483Z,6.97
2019-03-20T01:05:12.236Z,6.92
2019-03-20T01:06:02.482Z,7.01
2019-03-20T01:07:02.487Z,6.96
2019-03-20T01:08:02.556Z,7.03
2019-03-20T01:09:02.500Z,6.89
2019-03-20T01:10:02.490Z,6.90
2019-03-20T01:11:02.509Z,6.92
2019-03-20T01:12:02.528Z,6.93
2019-03-20T01:13:02.515Z,6.89
2019-03-20T01:14:02.678Z,6.86
2019-03-20T01:15:02.518Z,6.82
2019-03-20T01:16:02.546Z,6.80
2019-03-20T01:17:02.510Z,6.77
2019-03-20T01:18:02.531Z,6.85
2019-03-20T01:19:02.564Z,6.74
2019-03-20T01:20:02.543Z,6.82
2019-03-20T01:21:02.556Z,6.90
2019-03-20T01:22:02.551Z,6.82
2019-03-20T01:23:02.551Z,6.92
2019-03-20T01:24:02.555Z,6.77
2019-03-20T01:25:02.557Z,6.80
2019-03-20T01:26:02.586Z,6.89
2019-03-20T01:27:02.540Z,6.78
2019-03-20T01:28:02.554Z,6.92
2019-03-20T01:29:02.641Z,6.80
2019-03-20T01:30:02.573Z,6.75
2019-03-20T01:31:02.607Z,6.78
2019-03-20T01:32:02.610Z,6.75
2019-03-20T01:33:02.573Z,6.86
2019-03-20T01:34:02.567Z,6.86
2019-03-20T01:35:02.579Z,6.74
2019-03-20T01:36:02.584Z,6.74
2019-03-20T01:37:02.605Z,6.71
2019-03-20T01:38:02.597Z,6.78
2019-03-20T01:39:02.623Z,6.75
2019-03-20T01:40:02.626Z,6.72
2019-03-20T01:41:02.593Z,6.75
2019-03-20T01:42:02.651Z,6.71
2019-03-20T01:43:02.590Z,6.78
2019-03-20T01:44:02.591Z,6.78
2019-03-20T01:45:02.616Z,6.74
2019-03-20T01:46:02.652Z,6.77
2019-03-20T01:47:02.629Z,6.75
2019-03-20T01:48:02.661Z,6.74
2019-03-20T01:49:02.620Z,6.77
2019-03-20T01:50:02.625Z,6.78
2019-03-20T01:51:02.637Z,6.75
2019-03-20T01:52:02.663Z,6.77
2019-03-20T01:53:02.658Z,6.75
2019-03-20T01:54:02.667Z,6.74
2019-03-20T01:55:02.647Z,6.75
2019-03-20T01:56:02.643Z,6.60
2019-03-20T01:57:02.643Z,6.72
2019-03-20T01:58:02.700Z,6.64
2019-03-20T01:59:02.657Z,6.60
2019-03-20T02:00:02.666Z,6.60
2019-03-20T02:01:02.666Z,6.60
2019-03-20T02:02:02.654Z,6.68
2019-03-20T02:03:02.693Z,6.68
2019-03-20T02:04:02.653Z,6.64
2019-03-20T02:05:02.676Z,6.67
2019-03-20T02:06:02.680Z,6.67
2019-03-20T02:07:02.659Z,6.68
2019-03-20T02:08:02.715Z,6.68
2019-03-20T02:09:02.668Z,6.64
2019-03-20T02:10:02.690Z,6.60
2019-03-20T02:11:02.686Z,6.56
2019-03-20T02:12:02.690Z,6.56
2019-03-20T02:13:02.695Z,6.64
2019-03-20T02:14:02.764Z,6.57
2019-03-20T02:15:02.720Z,6.62
2019-03-20T02:16:02.709Z,6.56
2019-03-20T02:17:02.737Z,6.57
2019-03-20T02:18:02.708Z,6.59
2019-03-20T02:19:02.733Z,6.54
2019-03-20T02:20:02.779Z,6.49
2019-03-20T02:21:02.702Z,6.47
2019-03-20T02:22:02.732Z,6.50
2019-03-20T02:23:02.723Z,6.47
2019-03-20T02:24:02.730Z,6.56
2019-03-20T02:25:02.729Z,6.53
2019-03-20T02:26:02.741Z,6.54
2019-03-20T02:27:02.743Z,6.47
2019-03-20T02:28:02.772Z,6.52
2019-03-20T02:29:02.744Z,6.62
2019-03-20T02:30:02.787Z,6.50
2019-03-20T02:31:02.752Z,6.52
2019-03-20T02:32:02.736Z,6.50
2019-03-20T02:33:02.749Z,6.53
2019-03-20T02:34:02.747Z,6.50
2019-03-20T02:35:02.795Z,6.49
2019-03-20T02:36:02.804Z,6.53
2019-03-20T02:37:02.760Z,6.43
2019-03-20T02:38:02.769Z,6.44
2019-03-20T02:39:02.772Z,6.47
2019-03-20T02:40:02.818Z,6.47
2019-03-20T02:41:02.782Z,6.41
2019-03-20T02:42:02.809Z,6.50
2019-03-20T02:43:02.809Z,6.44
2019-03-20T02:44:02.800Z,6.49
2019-03-20T02:45:02.774Z,6.38
2019-03-20T02:46:02.810Z,6.38
2019-03-20T02:47:02.840Z,6.43
2019-03-20T02:48:02.806Z,6.47
2019-03-20T02:49:02.889Z,6.41
2019-03-20T02:50:02.795Z,6.46
2019-03-20T02:51:02.818Z,6.39
2019-03-20T02:52:04.246Z,6.36
2019-03-20T02:53:02.799Z,6.43
2019-03-20T02:54:02.805Z,6.26
2019-03-20T02:55:02.818Z,6.41
2019-03-20T02:56:02.846Z,6.26
2019-03-20T02:57:02.857Z,6.36
2019-03-20T02:58:02.878Z,6.35
2019-03-20T02:59:02.830Z,6.39
2019-03-20T03:00:02.837Z,6.39
2019-03-20T03:01:02.860Z,6.34
2019-03-20T03:02:02.824Z,6.39
2019-03-20T03:03:02.841Z,6.34
2019-03-20T03:04:02.891Z,6.36
2019-03-20T03:05:02.852Z,6.38
2019-03-20T03:06:07.117Z,6.39
2019-03-20T03:07:02.839Z,6.38
2019-03-20T03:08:02.877Z,6.35
2019-03-20T03:09:02.846Z,6.39
2019-03-20T03:10:02.873Z,6.36
2019-03-20T03:11:02.877Z,6.31
2019-03-20T03:12:02.863Z,6.32
2019-03-20T03:13:02.900Z,6.25
2019-03-20T03:14:02.885Z,6.22
2019-03-20T03:15:02.900Z,6.31
2019-03-20T03:16:02.875Z,6.29
2019-03-20T03:17:02.870Z,6.34
2019-03-20T03:18:02.907Z,6.31
2019-03-20T03:19:02.904Z,6.26
2019-03-20T03:20:02.876Z,6.25
2019-03-20T03:21:02.890Z,6.25
2019-03-20T03:22:02.888Z,6.26
2019-03-20T03:23:02.902Z,6.26
2019-03-20T03:24:02.908Z,6.28
2019-03-20T03:25:02.924Z,6.26
2019-03-20T03:26:02.919Z,6.25
2019-03-20T03:27:02.892Z,6.19
2019-03-20T03:28:02.906Z,6.26
2019-03-20T03:29:02.940Z,6.25
2019-03-20T03:30:02.909Z,6.32
2019-03-20T03:31:02.912Z,6.29
2019-03-20T03:32:02.922Z,6.29
2019-03-20T03:33:02.931Z,6.31
2019-03-20T03:34:02.940Z,6.17
2019-03-20T03:35:02.966Z,6.29
2019-03-20T03:36:02.921Z,6.17
2019-03-20T03:37:02.954Z,6.26
2019-03-20T03:38:02.936Z,6.29
2019-03-20T03:39:02.985Z,6.17
2019-03-20T03:40:02.932Z,6.22
2019-03-20T03:41:02.949Z,6.17
2019-03-20T03:42:02.959Z,6.19
2019-03-20T03:43:02.956Z,6.19
2019-03-20T03:44:02.951Z,6.20
2019-03-20T03:45:02.969Z,6.22
2019-03-20T03:46:02.976Z,6.25
2019-03-20T03:47:02.951Z,6.28
2019-03-20T03:48:02.997Z,6.17
2019-03-20T03:49:02.980Z,6.32
2019-03-20T03:50:02.997Z,6.22
2019-03-20T03:51:02.967Z,6.25
2019-03-20T03:52:02.966Z,6.20
2019-03-20T03:53:02.989Z,6.22
2019-03-20T03:54:02.988Z,6.25
2019-03-20T03:55:02.995Z,6.15
2019-03-20T03:56:02.988Z,6.32
2019-03-20T03:57:03.014Z,6.16
2019-03-20T03:58:03.013Z,6.19
2019-03-20T03:59:03.000Z,6.15
2019-03-20T04:00:03.012Z,6.19
2019-03-20T04:01:03.006Z,6.25
2019-03-20T04:02:03.002Z,6.15
2019-03-20T04:03:03.010Z,6.07
2019-03-20T04:04:03.050Z,6.06
2019-03-20T04:05:03.056Z,6.17
2019-03-20T04:06:03.043Z,6.13
2019-03-20T04:07:03.027Z,6.09
2019-03-20T04:08:03.013Z,6.02
2019-03-20T04:09:03.010Z,6.02
2019-03-20T04:10:03.015Z,6.02
2019-03-20T04:11:03.042Z,6.05
2019-03-20T04:12:03.063Z,6.01
2019-03-20T04:13:03.023Z,5.95
2019-03-20T04:14:03.111Z,6.02
2019-03-20T04:15:03.065Z,6.02
2019-03-20T04:16:03.038Z,6.06
2019-03-20T04:17:03.027Z,6.06
2019-03-20T04:18:03.041Z,6.02
2019-03-20T04:19:03.045Z,6.01
2019-03-20T04:20:03.103Z,6.02
2019-03-20T04:21:03.052Z,6.01
2019-03-20T04:22:03.057Z,5.94
2019-03-20T04:23:03.078Z,5.94
2019-03-20T04:24:03.089Z,5.94
2019-03-20T04:25:03.094Z,5.92
2019-03-20T04:26:03.098Z,5.92
2019-03-20T04:27:03.069Z,5.95
2019-03-20T04:28:03.107Z,5.94
2019-03-20T04:29:03.210Z,5.95
2019-03-20T04:30:03.073Z,5.90
2019-03-20T04:31:03.081Z,5.91
2019-03-20T04:32:03.094Z,5.88
2019-03-20T04:33:03.092Z,5.91
2019-03-20T04:34:03.095Z,5.81
2019-03-20T04:35:03.096Z,5.90
2019-03-20T04:36:03.115Z,5.92
2019-03-20T04:37:03.079Z,5.90
2019-03-20T04:38:03.115Z,5.84
2019-03-20T04:39:03.111Z,5.87
2019-03-20T04:40:03.097Z,5.87
2019-03-20T04:41:03.132Z,5.83
2019-03-20T04:42:03.113Z,5.92
2019-03-20T04:43:03.105Z,5.81
2019-03-20T04:44:03.102Z,5.90
2019-03-20T04:45:03.134Z,5.90
2019-03-20T04:46:03.141Z,5.90
2019-03-20T04:47:03.112Z,5.90
2019-03-20T04:48:03.132Z,5.81
2019-03-20T04:49:03.136Z,5.83
2019-03-20T04:50:03.139Z,5.67
2019-03-20T04:51:03.115Z,5.77
2019-03-20T04:52:03.168Z,5.77
2019-03-20T04:53:03.151Z,5.77
2019-03-20T04:54:03.133Z,5.80
2019-03-20T04:55:03.199Z,5.77
2019-03-20T04:56:03.145Z,5.76
2019-03-20T04:57:03.315Z,5.76
2019-03-20T04:58:03.242Z,5.73
2019-03-20T04:59:03.364Z,5.73
2019-03-20T05:00:03.190Z,5.79
2019-03-20T05:01:03.202Z,5.77
2019-03-20T05:02:03.186Z,5.77
2019-03-20T05:03:03.179Z,5.70
2019-03-20T05:04:03.178Z,5.72
2019-03-20T05:05:03.157Z,5.79
2019-03-20T05:06:03.171Z,5.79
2019-03-20T05:07:03.265Z,5.76
2019-03-20T05:08:03.177Z,5.73
2019-03-20T05:09:03.166Z,5.65
2019-03-20T05:10:03.188Z,5.61
2019-03-20T05:11:03.187Z,5.70
2019-03-20T05:12:03.199Z,5.67
2019-03-20T05:13:03.205Z,5.64
2019-03-20T05:14:03.223Z,5.73
2019-03-20T05:15:03.201Z,5.72
2019-03-20T05:16:03.192Z,5.65
2019-03-20T05:17:03.224Z,5.65
2019-03-20T05:18:03.209Z,5.73
2019-03-20T05:19:03.197Z,5.73
2019-03-20T05:20:03.189Z,5.69
2019-03-20T05:21:03.236Z,5.76
2019-03-20T05:22:03.258Z,5.77
2019-03-20T05:23:03.242Z,5.74
2019-03-20T05:24:03.267Z,5.70
2019-03-20T05:25:03.216Z,5.73
2019-03-20T05:26:03.222Z,5.77
2019-03-20T05:27:03.239Z,5.70
2019-03-20T05:28:03.301Z,5.72
2019-03-20T05:29:03.223Z,5.73
2019-03-20T05:30:03.216Z,5.74
2019-03-20T05:31:03.243Z,5.79
2019-03-20T05:32:03.232Z,5.79
2019-03-20T05:33:03.230Z,5.84
2019-03-20T05:34:03.256Z,5.87
2019-03-20T05:35:03.261Z,5.83
2019-03-20T05:36:03.247Z,5.90
2019-03-20T05:37:10.184Z,5.90
2019-03-20T05:38:03.264Z,5.98
2019-03-20T05:39:03.353Z,5.97
2019-03-20T05:40:03.242Z,6.09
2019-03-20T05:41:03.248Z,6.07
2019-03-20T05:42:03.287Z,6.02
2019-03-20T05:43:03.261Z,6.15
2019-03-20T05:44:03.273Z,6.17
2019-03-20T05:45:03.336Z,6.32
2019-03-20T05:46:03.270Z,6.39
2019-03-20T05:47:03.278Z,6.35
2019-03-20T05:48:03.353Z,6.46
2019-03-20T05:49:03.291Z,6.46
2019-03-20T05:50:03.297Z,6.62
2019-03-20T05:51:03.291Z,6.64
2019-03-20T05:52:03.288Z,6.68
2019-03-20T05:53:03.333Z,6.78
2019-03-20T05:54:03.386Z,6.85
2019-03-20T05:55:03.310Z,6.92
2019-03-20T05:56:03.304Z,6.97
2019-03-20T05:57:03.301Z,7.04
2019-03-20T05:58:03.303Z,7.04
2019-03-20T05:59:03.331Z,7.03
2019-03-20T06:00:03.343Z,7.18
2019-03-20T06:01:03.322Z,7.29
2019-03-20T06:02:03.322Z,7.37
2019-03-20T06:03:03.336Z,7.39
2019-03-20T06:04:03.393Z,7.44
2019-03-20T06:05:03.454Z,7.48
2019-03-20T06:06:03.343Z,7.53
2019-03-20T06:07:03.346Z,7.69
2019-03-20T06:08:03.374Z,7.72
2019-03-20T06:09:03.341Z,7.72
2019-03-20T06:10:03.364Z,7.74
2019-03-20T06:11:03.417Z,7.75
2019-03-20T06:12:03.361Z,7.87
2019-03-20T06:13:03.369Z,7.80
2019-03-20T06:14:03.371Z,7.84
2019-03-20T06:15:04.767Z,7.93
2019-03-20T06:16:03.443Z,7.95
2019-03-20T06:17:03.417Z,7.98
2019-03-20T06:18:03.397Z,7.95
2019-03-20T06:19:03.399Z,7.88
2019-03-20T06:20:03.392Z,7.95
2019-03-20T06:21:03.420Z,7.87
2019-03-20T06:22:03.540Z,8.02
2019-03-20T06:23:03.398Z,8.02
2019-03-20T06:24:03.452Z,7.98
2019-03-20T06:25:03.428Z,8.11
2019-03-20T06:26:03.470Z,8.11
2019-03-20T06:27:03.469Z,8.09
2019-03-20T06:28:03.448Z,8.11
2019-03-20T06:29:03.478Z,8.08
2019-03-20T06:30:03.487Z,8.06
2019-03-20T06:31:03.455Z,8.11
2019-03-20T06:32:03.502Z,8.11
2019-03-20T06:33:03.499Z,8.08
2019-03-20T06:34:03.449Z,8.14
2019-03-20T06:35:03.463Z,8.08
2019-03-20T06:36:03.847Z,8.08
2019-03-20T06:37:03.478Z,8.05
2019-03-20T06:38:03.535Z,8.13
2019-03-20T06:39:05.016Z,8.09
2019-03-20T06:40:03.482Z,8.14
2019-03-20T06:41:03.502Z,8.05
2019-03-20T06:42:03.498Z,8.08
2019-03-20T06:43:03.499Z,8.05
2019-03-20T06:44:03.525Z,8.11
2019-03-20T06:45:03.507Z,8.06
2019-03-20T06:46:03.555Z,8.13
2019-03-20T06:47:03.532Z,8.13
2019-03-20T06:48:03.551Z,8.05
2019-03-20T06:49:03.551Z,8.08
2019-03-20T06:50:03.553Z,8.06
2019-03-20T06:51:03.522Z,8.11
2019-03-20T06:52:03.683Z,8.08
2019-03-20T06:53:03.545Z,8.13
2019-03-20T06:54:03.540Z,8.11
2019-03-20T06:55:03.565Z,8.05
2019-03-20T06:56:03.578Z,8.06
2019-03-20T06:57:03.545Z,8.09
2019-03-20T06:58:03.582Z,8.09
2019-03-20T06:59:03.702Z,8.08
2019-03-20T07:00:05.494Z,8.09
2019-03-20T07:01:03.694Z,8.14
2019-03-20T07:02:03.566Z,8.13
2019-03-20T07:03:03.597Z,8.11
2019-03-20T07:04:03.615Z,8.18
2019-03-20T07:05:03.575Z,8.11
2019-03-20T07:06:03.609Z,8.11
2019-03-20T07:07:03.587Z,8.08
2019-03-20T07:08:03.848Z,8.18
2019-03-20T07:09:03.600Z,8.11
2019-03-20T07:10:03.627Z,8.09
2019-03-20T07:11:03.642Z,8.09
2019-03-20T07:12:03.608Z,8.17
2019-03-20T07:13:03.622Z,8.21
2019-03-20T07:14:03.600Z,8.20
2019-03-20T07:15:03.621Z,8.17
2019-03-20T07:16:03.635Z,8.20
2019-03-20T07:17:03.673Z,8.21
2019-03-20T07:18:03.652Z,8.20
2019-03-20T07:19:03.630Z,8.17
2019-03-20T07:20:03.638Z,8.20
2019-03-20T07:21:03.644Z,8.17
2019-03-20T07:22:03.672Z,8.23
2019-03-20T07:23:03.647Z,8.14
2019-03-20T07:24:03.681Z,8.14
2019-03-20T07:25:03.658Z,8.20
2019-03-20T07:26:03.653Z,8.08
2019-03-20T07:27:03.659Z,8.09
2019-03-20T07:28:03.749Z,8.17
2019-03-20T07:29:03.662Z,8.23
2019-03-20T07:30:03.681Z,8.13
2019-03-20T07:31:14.261Z,8.26
2019-03-20T07:32:03.735Z,8.28
2019-03-20T07:33:03.727Z,8.24
2019-03-20T07:34:03.691Z,8.24
2019-03-20T07:35:03.694Z,8.27
2019-03-20T07:36:03.692Z,8.27
2019-03-20T07:37:03.714Z,8.27
2019-03-20T07:38:03.846Z,8.21
2019-03-20T07:39:03.708Z,8.23
2019-03-20T07:40:03.712Z,8.45
2019-03-20T07:41:03.718Z,8.38
2019-03-20T07:42:03.722Z,8.32
2019-03-20T07:43:08.616Z,8.42
2019-03-20T07:44:03.781Z,8.49
2019-03-20T07:45:03.872Z,8.42
2019-03-20T07:46:03.747Z,8.38
2019-03-20T07:47:03.739Z,8.44
2019-03-20T07:48:03.727Z,8.46
2019-03-20T07:49:03.747Z,8.45
2019-03-20T07:50:03.782Z,8.44
2019-03-20T07:51:03.794Z,8.53
2019-03-20T07:52:03.768Z,8.53
2019-03-20T07:53:03.739Z,8.52
2019-03-20T07:54:03.773Z,8.57
2019-03-20T07:55:03.761Z,8.57
2019-03-20T07:56:03.780Z,8.59
2019-03-20T07:57:03.776Z,8.57
2019-03-20T07:58:03.770Z,8.59
2019-03-20T07:59:03.832Z,8.56
2019-03-20T08:00:03.787Z,8.71
2019-03-20T08:01:03.790Z,8.66
2019-03-20T08:02:03.798Z,8.64
2019-03-20T08:03:03.809Z,8.69
2019-03-20T08:04:03.829Z,8.68
2019-03-20T08:05:03.810Z,8.61
2019-03-20T08:06:03.850Z,8.69
2019-03-20T08:07:03.811Z,8.75
2019-03-20T08:08:07.652Z,8.69
2019-03-20T08:09:03.838Z,8.69
2019-03-20T08:10:03.865Z,8.77
2019-03-20T08:11:03.821Z,8.78
2019-03-20T08:12:03.828Z,8.77
2019-03-20T08:13:03.864Z,8.74
2019-03-20T08:14:03.832Z,8.66
2019-03-20T08:15:03.843Z,8.72
2019-03-20T08:16:04.151Z,8.75
2019-03-20T08:17:03.846Z,8.86
2019-03-20T08:18:03.863Z,8.96
2019-03-20T08:19:03.873Z,8.89
2019-03-20T08:20:03.869Z,8.92
2019-03-20T08:21:03.880Z,8.92
2019-03-20T08:22:03.884Z,8.92
2019-03-20T08:23:03.886Z,8.87
2019-03-20T08:24:03.904Z,8.89
2019-03-20T08:25:03.891Z,9.00
2019-03-20T08:26:03.871Z,8.99
2019-03-20T08:27:03.963Z,9.08
2019-03-20T08:28:03.889Z,9.02
2019-03-20T08:29:03.897Z,9.09
2019-03-20T08:30:03.954Z,9.08
2019-03-20T08:31:03.921Z,9.11
2019-03-20T08:32:03.907Z,9.09
2019-03-20T08:33:03.923Z,9.19
2019-03-20T08:34:03.950Z,9.13
2019-03-20T08:35:03.917Z,9.18
2019-03-20T08:36:03.991Z,9.22
2019-03-20T08:37:03.933Z,9.21
2019-03-20T08:38:04.087Z,9.22
2019-03-20T08:39:03.949Z,9.27
2019-03-20T08:40:03.961Z,9.30
2019-03-20T08:41:03.932Z,9.30
2019-03-20T08:42:03.939Z,9.31
2019-03-20T08:43:03.953Z,9.34
2019-03-20T08:44:03.944Z,9.31
2019-03-20T08:45:03.998Z,9.40
2019-03-20T08:46:03.963Z,9.37
2019-03-20T08:47:03.962Z,9.44
2019-03-20T08:48:03.964Z,9.49
2019-03-20T08:49:04.023Z,9.51
2019-03-20T08:50:04.012Z,9.62
2019-03-20T08:51:03.987Z,9.58
2019-03-20T08:52:04.016Z,9.54
2019-03-20T08:53:04.025Z,9.55
2019-03-20T08:54:04.015Z,9.58
2019-03-20T08:55:03.995Z,9.69
2019-03-20T08:56:04.082Z,9.64
2019-03-20T08:57:04.019Z,9.58
2019-03-20T08:58:04.011Z,9.70
2019-03-20T08:59:04.037Z,9.73
2019-03-20T09:00:04.028Z,9.81
2019-03-20T09:01:04.041Z,9.77
2019-03-20T09:02:04.047Z,9.82
2019-03-20T09:03:04.079Z,9.90
2019-03-20T09:04:04.055Z,9.97
2019-03-20T09:05:04.060Z,9.92
2019-03-20T09:06:04.073Z,9.94
2019-03-20T09:07:04.069Z,9.92
2019-03-20T09:08:04.048Z,9.95
2019-03-20T09:09:04.053Z,9.99
2019-03-20T09:10:04.211Z,9.92
2019-03-20T09:11:04.121Z,9.92
2019-03-20T09:12:04.090Z,9.99
2019-03-20T09:13:04.082Z,9.95
2019-03-20T09:14:04.090Z,10.12
2019-03-20T09:15:04.087Z,10.06
2019-03-20T09:16:04.162Z,10.10
2019-03-20T09:17:04.129Z,10.21
2019-03-20T09:18:04.148Z,10.12
2019-03-20T09:19:04.107Z,10.27
2019-03-20T09:20:04.123Z,10.13
2019-03-20T09:21:04.131Z,10.28
2019-03-20T09:22:04.138Z,10.23
2019-03-20T09:23:04.136Z,10.31
2019-03-20T09:24:04.150Z,10.27
2019-03-20T09:25:04.151Z,10.34
2019-03-20T09:26:04.219Z,10.33
2019-03-20T09:27:04.176Z,10.34
2019-03-20T09:28:04.180Z,10.30
2019-03-20T09:29:04.189Z,10.34
2019-03-20T09:30:04.184Z,10.33
2019-03-20T09:31:04.164Z,10.34
2019-03-20T09:32:04.185Z,10.31
2019-03-20T09:33:04.200Z,10.34
2019-03-20T09:34:04.287Z,10.46
2019-03-20T09:35:06.843Z,10.46
2019-03-20T09:36:04.182Z,10.55
2019-03-20T09:37:04.200Z,10.51
2019-03-20T09:38:04.264Z,10.51
2019-03-20T09:39:04.255Z,10.45
2019-03-20T09:40:04.212Z,10.62
2019-03-20T09:41:04.224Z,10.57
2019-03-20T09:42:04.215Z,10.55
2019-03-20T09:43:04.297Z,10.58
2019-03-20T09:44:04.278Z,10.59
2019-03-20T09:45:04.239Z,10.61
2019-03-20T09:46:04.243Z,10.61
2019-03-20T09:47:04.245Z,10.65
2019-03-20T09:48:04.264Z,10.68
2019-03-20T09:49:04.293Z,10.75
2019-03-20T09:50:04.269Z,10.82
2019-03-20T09:51:04.287Z,10.86
2019-03-20T09:52:04.285Z,10.76
2019-03-20T09:53:04.261Z,10.94
2019-03-20T09:54:04.319Z,10.98
2019-03-20T09:55:04.308Z,11.00
2019-03-20T09:56:04.318Z,11.02
2019-03-20T09:57:04.278Z,10.92
2019-03-20T09:58:11.614Z,11.01
2019-03-20T09:59:04.338Z,11.10
2019-03-20T10:00:04.350Z,11.12
2019-03-20T10:01:04.306Z,11.19
2019-03-20T10:02:04.313Z,11.30
2019-03-20T10:03:04.320Z,11.23
2019-03-20T10:04:04.329Z,11.33
2019-03-20T10:05:04.356Z,11.37
2019-03-20T10:06:04.342Z,11.37
2019-03-20T10:07:04.334Z,11.41
2019-03-20T10:08:04.360Z,11.40
2019-03-20T10:09:04.409Z,11.40
2019-03-20T10:10:04.408Z,11.43
2019-03-20T10:11:04.373Z,11.38
2019-03-20T10:12:04.363Z,11.37
2019-03-20T10:13:04.379Z,11.49
2019-03-20T10:14:04.378Z,11.49
2019-03-20T10:15:04.391Z,11.40
2019-03-20T10:16:04.411Z,11.52
2019-03-20T10:17:04.411Z,11.40
2019-03-20T10:18:04.400Z,11.43
2019-03-20T10:19:04.418Z,11.51
2019-03-20T10:20:04.424Z,11.56
2019-03-20T10:21:04.408Z,11.65
2019-03-20T10:22:04.427Z,11.58
2019-03-20T10:23:04.483Z,11.53
2019-03-20T10:24:04.450Z,11.51
2019-03-20T10:25:04.471Z,11.56
2019-03-20T10:26:04.479Z,11.49
2019-03-20T10:27:04.446Z,11.58
2019-03-20T10:28:04.445Z,11.52
2019-03-20T10:29:04.468Z,11.53
2019-03-20T10:30:04.454Z,11.51
2019-03-20T10:31:04.552Z,11.55
2019-03-20T10:32:04.494Z,11.52
2019-03-20T10:33:04.469Z,11.59
2019-03-20T10:34:04.470Z,11.49
2019-03-20T10:35:04.504Z,11.58
2019-03-20T10:36:04.501Z,11.68
2019-03-20T10:37:04.534Z,11.70
2019-03-20T10:38:04.510Z,11.67
2019-03-20T10:39:06.716Z,11.68
2019-03-20T10:40:04.510Z,11.63
2019-03-20T10:41:04.516Z,11.68
2019-03-20T10:42:04.572Z,11.63
2019-03-20T10:43:04.528Z,11.67
2019-03-20T10:44:04.544Z,11.71
2019-03-20T10:45:04.543Z,11.70
2019-03-20T10:46:04.545Z,11.71
2019-03-20T10:47:04.577Z,11.74
2019-03-20T10:48:04.562Z,11.73
2019-03-20T10:49:04.622Z,11.71
2019-03-20T10:50:04.571Z,11.76
2019-03-20T10:51:04.564Z,11.73
2019-03-20T10:52:04.611Z,11.73
2019-03-20T10:53:04.644Z,11.83
2019-03-20T10:54:04.599Z,11.78
2019-03-20T10:55:04.604Z,11.77
2019-03-20T10:56:04.630Z,11.76
2019-03-20T10:57:04.604Z,11.78
2019-03-20T10:58:04.595Z,11.81
2019-03-20T10:59:04.642Z,11.85
2019-03-20T11:00:04.613Z,11.96
2019-03-20T11:01:04.621Z,11.88
2019-03-20T11:02:04.629Z,11.91
2019-03-20T11:03:04.627Z,11.89
2019-03-20T11:04:04.695Z,11.99
2019-03-20T11:05:04.677Z,12.00
2019-03-20T11:06:04.663Z,11.95
2019-03-20T11:07:04.657Z,11.97
2019-03-20T11:08:04.652Z,12.00
2019-03-20T11:09:04.669Z,12.05
2019-03-20T11:10:04.714Z,12.05
2019-03-20T11:11:04.679Z,11.99
2019-03-20T11:12:04.691Z,12.02
2019-03-20T11:13:04.692Z,12.18
2019-03-20T11:14:04.718Z,12.14
2019-03-20T11:15:04.775Z,12.21
2019-03-20T11:16:04.722Z,12.28
2019-03-20T11:17:04.736Z,12.39
2019-03-20T11:18:04.718Z,12.39
2019-03-20T11:19:04.722Z,12.35
2019-03-20T11:20:04.750Z,12.37
2019-03-20T11:21:04.735Z,12.37
2019-03-20T11:22:04.767Z,12.57
2019-03-20T11:23:04.765Z,12.62
2019-03-20T11:24:04.760Z,12.65
2019-03-20T11:25:04.774Z,12.70
2019-03-20T11:26:04.767Z,12.81
2019-03-20T11:27:04.785Z,12.73
2019-03-20T11:28:04.800Z,12.87
2019-03-20T11:29:04.803Z,12.93
2019-03-20T11:30:04.821Z,12.95
2019-03-20T11:31:04.798Z,13.11
2019-03-20T11:32:04.799Z,13.20
2019-03-20T11:33:04.794Z,13.19
2019-03-20T11:34:04.805Z,13.36
2019-03-20T11:35:04.850Z,13.47
2019-03-20T11:36:04.854Z,13.57
2019-03-20T11:37:04.896Z,13.68
2019-03-20T11:38:04.834Z,13.64
2019-03-20T11:39:04.893Z,13.80
2019-03-20T11:40:04.905Z,13.87
2019-03-20T11:41:04.928Z,13.86
2019-03-20T11:42:04.876Z,13.94
2019-03-20T11:43:04.887Z,14.13
2019-03-20T11:44:04.874Z,14.19
2019-03-20T11:45:04.930Z,14.23
2019-03-20T11:46:04.901Z,14.08
2019-03-20T11:47:04.926Z,14.07
2019-03-20T11:48:04.943Z,14.07
2019-03-20T11:49:04.909Z,14.12
2019-03-20T11:50:04.918Z,14.13
2019-03-20T11:51:04.942Z,14.26
2019-03-20T11:52:06.285Z,14.34
2019-03-20T11:53:05.054Z,14.31
2019-03-20T11:54:04.962Z,14.37
2019-03-20T11:55:05.010Z,14.34
2019-03-20T11:56:04.977Z,14.31
2019-03-20T11:57:04.973Z,14.49
2019-03-20T11:58:04.982Z,14.53
2019-03-20T11:59:05.011Z,14.56
2019-03-20T12:00:05.026Z,14.63
2019-03-20T12:01:04.990Z,14.68
2019-03-20T12:02:05.030Z,14.74
2019-03-20T12:03:05.017Z,14.74
2019-03-20T12:04:05.045Z,14.66
2019-03-20T12:05:05.041Z,14.78
2019-03-20T12:06:05.038Z,14.79
2019-03-20T12:07:05.032Z,14.81
2019-03-20T12:08:05.071Z,14.94
2019-03-20T12:09:05.062Z,14.96
2019-03-20T12:10:05.058Z,14.99
2019-03-20T12:11:05.124Z,14.99
2019-03-20T12:12:05.093Z,15.05
2019-03-20T12:13:05.089Z,15.00
2019-03-20T12:14:05.103Z,14.90
2019-03-20T12:15:05.091Z,14.82
2019-03-20T12:16:05.171Z,14.92
2019-03-20T12:17:05.147Z,14.89
2019-03-20T12:18:05.129Z,15.02
2019-03-20T12:19:05.147Z,15.05
2019-03-20T12:20:05.244Z,15.08
2019-03-20T12:21:05.162Z,14.90
2019-03-20T12:22:05.167Z,14.86
2019-03-20T12:23:05.158Z,14.94
2019-03-20T12:24:05.170Z,15.07
2019-03-20T12:25:05.182Z,15.05
2019-03-20T12:26:05.244Z,15.04
2019-03-20T12:27:14.575Z,15.02
2019-03-20T12:28:05.252Z,14.96
2019-03-20T12:29:05.214Z,15.04
2019-03-20T12:30:05.256Z,14.87
2019-03-20T12:31:06.711Z,14.97
2019-03-20T12:32:05.250Z,14.92
2019-03-20T12:33:05.230Z,14.92
2019-03-20T12:34:05.236Z,14.96
2019-03-20T12:35:05.248Z,14.92
2019-03-20T12:36:05.307Z,14.94
2019-03-20T12:37:05.274Z,15.07
2019-03-20T12:38:14.183Z,15.02
2019-03-20T12:39:05.279Z,14.97
2019-03-20T12:40:05.328Z,15.07
2019-03-20T12:41:05.328Z,14.93
2019-03-20T12:42:05.345Z,14.99
2019-03-20T12:43:05.364Z,14.96
2019-03-20T12:44:05.322Z,14.94
2019-03-20T12:45:05.372Z,15.07
2019-03-20T12:46:05.323Z,15.12
2019-03-20T12:47:05.357Z,15.10
2019-03-20T12:48:05.380Z,15.11
2019-03-20T12:49:05.355Z,15.11
2019-03-20T12:50:05.414Z,15.07
2019-03-20T12:51:05.389Z,15.11
2019-03-20T12:52:05.378Z,14.94
2019-03-20T12:53:05.477Z,14.96
2019-03-20T12:54:05.422Z,14.97
2019-03-20T12:55:05.393Z,14.90
2019-03-20T12:56:05.424Z,14.93
2019-03-20T12:57:05.416Z,14.96
2019-03-20T12:58:05.414Z,14.89
2019-03-20T12:59:05.462Z,15.02
2019-03-20T13:00:05.535Z,14.99
2019-03-20T13:01:05.439Z,15.04
2019-03-20T13:02:05.448Z,15.12
2019-03-20T13:03:05.505Z,15.07
2019-03-20T13:04:05.465Z,14.99
2019-03-20T13:05:05.531Z,15.14
2019-03-20T13:06:05.478Z,15.11
2019-03-20T13:07:05.482Z,15.30
2019-03-20T13:08:06.298Z,15.26
2019-03-20T13:09:05.545Z,15.26
2019-03-20T13:10:05.504Z,15.32